Latest Weather Observations for Falls Creek

IDV60801

Issued at 8:12 pm EDT Saturday 16 February 2019 (issued every 10 minutes, with the page automatically refreshed every 10 minutes)

About weather observations | Map of weather stations | Latest weather observations for VIC | Other Formats
Station Details ID: 083084 Name: FALLS CREEK Lat: -36.87 Lon: 147.28 Height: 1765.0 m
Data from the previous 72 hours. | See also: Recent months at Falls Creek
Date/Time
EDT
Temp
°C
App
Temp
°C
Dew
Point
°C
Rel
Hum
%
Delta-T
°C
Wind Press
QNH
hPa
Press
MSL
hPa
Rain since
9am
mm
Dir  Spd
km/h
Gust
km/h
Spd
kts
Gust
kts
16/08:00pm 14.4 12.3 5.7 56 4.5 NW 6 9 3 5 1023.4 1015.4 0.0
16/07:30pm 15.0 11.9 5.5 53 5.0 NNW 11 13 6 7 1023.3 1015.3 0.0
16/07:00pm 15.4 12.4 6.2 54 4.9 NNW 11 17 6 9 1023.3 1015.3 0.0
16/06:30pm 16.5 14.0 6.6 52 5.3 NW 9 20 5 11 1023.4 1015.4 0.0
16/06:00pm 17.1 14.7 6.9 51 5.5 NNW 9 17 5 9 1023.6 1015.5 0.0
16/05:30pm 16.2 12.9 6.6 53 5.2 NNW 13 22 7 12 1023.7 1015.7 0.0
16/05:00pm 16.2 13.3 6.3 52 5.3 NW 11 26 6 14 1023.8 1015.8 0.0
16/04:30pm 16.3 13.2 7.3 55 4.9 N 13 24 7 13 1023.9 1015.9 0.0
16/04:00pm 17.1 12.8 7.7 54 5.2 N 20 28 11 15 1023.8 1015.8 0.0
16/03:30pm 17.7 13.1 8.3 54 5.3 N 22 32 12 17 1023.9 1015.9 0.0
16/03:00pm 17.1 12.0 7.7 54 5.2 N 24 33 13 18 1024.3 1016.3 0.0
16/02:30pm 17.4 12.0 8.0 54 5.2 N 26 41 14 22 1024.7 1016.8 0.0
16/02:00pm 17.2 13.2 8.9 58 4.7 N 20 32 11 17 1025.0 1017.0 0.0
16/01:30pm 14.9 10.4 7.0 59 4.3 NNW 20 28 11 15 1025.2 1017.3 0.0
16/01:00pm 15.5 11.2 6.8 56 4.7 N 19 30 10 16 1025.3 1017.4 0.0
16/12:30pm 15.5 11.0 7.0 57 4.6 NNW 20 30 11 16 1025.7 1017.8 0.0
16/12:00pm 15.6 11.1 7.1 57 4.6 N 20 35 11 19 1025.9 1018.0 0.0
16/11:30am 15.2 10.8 7.3 59 4.3 NNW 20 30 11 16 1025.9 1018.0 0.0
16/11:00am 14.5 10.1 7.5 63 3.8 NNW 20 32 11 17 1026.1 1018.1 0.0
16/10:30am 13.8 9.9 8.6 71 2.9 NNW 19 32 10 17 1026.1 1018.1 0.0
16/10:00am 14.0 9.9 8.8 71 2.9 NNW 20 30 11 16 1025.9 1018.0 0.0
16/09:30am 13.6 9.3 8.0 69 3.1 NNW 20 33 11 18 1026.1 1018.1 0.0
16/09:00am 14.2 10.0 7.5 64 3.6 NNW 19 35 10 19 1026.2 1018.2 0.0
16/08:30am 13.7 10.3 7.7 67 3.3 NNW 15 22 8 12 1026.1 1018.1 0.0
16/08:00am 12.9 8.4 6.9 67 3.2 NNW 20 28 11 15 1026.1 1018.1 0.0
16/07:30am 12.2 8.2 6.7 69 2.9 NW 17 24 9 13 1026.1 1018.1 0.0
16/07:00am 11.7 7.7 6.8 72 2.6 NW 17 22 9 12 1025.9 1018.0 0.0
16/06:30am 11.9 7.6 6.8 71 2.7 NNW 19 26 10 14 1025.8 1017.9 0.0
16/06:00am 12.0 6.8 7.1 72 2.6 NNW 24 32 13 17 1025.5 1017.5 0.0
16/05:30am 12.0 6.5 7.5 74 2.4 NW 26 33 14 18 1025.3 1017.4 0.0
16/05:00am 11.8 7.5 7.9 77 2.1 NW 20 28 11 15 1025.5 1017.5 0.0
16/04:30am 12.3 8.1 7.6 73 2.5 NNW 19 26 10 14 1025.7 1017.8 0.0
16/04:00am 12.9 9.1 7.4 69 2.9 NNW 17 22 9 12 1025.8 1017.9 0.0
16/03:30am 13.3 9.4 7.3 67 3.2 NNW 17 20 9 11 1025.9 1018.0 0.0
16/03:00am 13.5 9.6 7.1 65 3.4 NNW 17 24 9 13 1026.1 1018.1 0.0
16/02:30am 13.2 9.6 6.8 65 3.4 NNW 15 19 8 10 1026.4 1018.5 0.0
16/02:00am 13.5 10.0 7.1 65 3.4 NNW 15 19 8 10 1026.8 1018.9 0.0
16/01:30am 13.5 10.8 7.5 67 3.2 N 11 17 6 9 1027.1 1019.2 0.0
16/01:00am 13.8 10.0 7.6 66 3.3 NNE 17 26 9 14 1027.2 1019.3 0.0
16/12:30am 13.3 11.0 7.3 67 3.2 NE 9 17 5 9 1027.6 1019.7 0.0
16/12:00am 12.9 10.4 8.0 72 2.6 E 11 17 6 9 1027.7 1019.8 0.0
 
Date/Time
EDT
Temp
°C
App
Temp
°C
Dew
Point
°C
Rel
Hum
%
Delta-T
°C
Wind Press
QNH
hPa
Press
MSL
hPa
Rain since
9am
mm
Dir  Spd
km/h
Gust
km/h
Spd
kts
Gust
kts
15/11:30pm 12.6 9.7 8.3 75 2.3 ESE 13 19 7 10 1027.8 1020.0 0.0
15/11:00pm 12.5 9.6 8.2 75 2.3 SE 13 15 7 8 1028.2 1020.3 0.0
15/10:30pm 12.6 10.0 7.7 72 2.6 SE 11 13 6 7 1028.4 1020.6 0.0
15/10:00pm 12.8 10.2 7.9 72 2.6 SSE 11 15 6 8 1028.4 1020.6 0.0
15/09:30pm 13.1 10.1 7.5 69 3.0 SE 13 19 7 10 1028.2 1020.3 0.0
15/09:00pm 13.5 10.5 7.5 67 3.2 SE 13 15 7 8 1028.0 1020.1 0.0
15/08:30pm 14.4 12.0 7.0 61 4.0 SE 9 15 5 8 1027.8 1020.0 0.0
15/08:00pm 15.5 14.0 8.3 62 4.0 ENE 6 9 3 5 1027.6 1019.7 0.0
15/07:30pm 15.8 13.7 8.3 61 4.2 NE 9 13 5 7 1027.5 1019.6 0.0
15/07:00pm 17.6 16.1 9.2 58 4.8 NE 7 11 4 6 1027.6 1019.7 0.0
15/06:30pm 18.1 17.1 8.9 55 5.2 ENE 4 7 2 4 1027.5 1019.6 0.0
15/06:00pm 18.2 16.4 9.3 56 5.1 NE 9 17 5 9 1027.6 1019.7 0.0
15/05:30pm 19.1 17.8 9.3 53 5.6 NW 6 9 3 5 1027.8 1020.0 0.0
15/05:00pm 18.1 16.7 8.9 55 5.2 NE 6 11 3 6 1027.8 1020.0 0.0
15/04:30pm 19.3 18.1 9.5 53 5.7 SSE 6 22 3 12 1028.0 1020.1 0.0
15/04:00pm 18.7 16.3 8.7 52 5.7 N 11 17 6 9 1028.0 1020.1 0.0
15/03:30pm 19.1 16.7 8.7 51 5.9 NNW 11 17 6 9 1028.1 1020.2 0.0
15/03:00pm 17.6 14.5 7.4 51 5.6 N 13 22 7 12 1028.4 1020.6 0.0
15/02:30pm 17.5 14.5 7.5 52 5.5 N 13 22 7 12 1028.7 1020.8 0.0
15/02:00pm 18.0 15.2 7.1 49 6.0 N 11 24 6 13 1028.9 1021.1 0.0
15/01:30pm 17.0 14.1 6.5 50 5.7 NNE 11 19 6 10 1028.9 1021.1 0.0
15/01:00pm 16.2 12.9 6.6 53 5.1 NNE 13 20 7 11 1029.0 1021.2 0.0
15/12:30pm 15.6 12.8 7.1 57 4.6 NNE 11 19 6 10 1029.3 1021.4 0.0
15/12:00pm 15.1 12.2 6.4 56 4.6 N 11 19 6 10 1029.5 1021.7 0.0
15/11:30am 14.6 11.3 6.4 58 4.4 N 13 20 7 11 1029.5 1021.7 0.0
15/11:00am 14.7 10.9 5.8 55 4.7 NNW 15 22 8 12 1029.3 1021.4 0.0
15/10:30am 14.9 10.8 4.6 50 5.3 NNW 15 22 8 12 1029.1 1021.3 0.0
15/10:00am 14.6 10.9 4.3 50 5.2 NNW 13 22 7 12 1028.9 1021.1 0.0
15/09:30am 14.7 11.0 4.4 50 5.3 NNW 13 22 7 12 1028.9 1021.1 0.0
15/09:00am 14.0 10.6 3.8 50 5.1 NNW 11 15 6 8 1028.7 1020.8 0.0
15/08:30am 13.0 9.9 3.4 52 4.8 NNW 9 13 5 7 1028.4 1020.6 0.0
15/08:00am 13.3 10.2 1.3 44 5.7 NNW 7 9 4 5 1028.1 1020.2 0.0
15/07:30am 12.8 9.6 -0.8 39 6.1 NNW 6 7 3 4 1027.7 1019.8 0.0
15/07:00am 13.1 9.4 -4.5 29 7.3 N 6 7 3 4 1027.5 1019.6 0.0
15/06:30am 13.1 10.3 -6.5 25 7.9 CALM 0 0 0 0 1027.2 1019.3 0.0
15/06:00am 12.1 9.3 -6.8 26 7.4 CALM 0 0 0 0 1027.0 1019.1 0.0
15/05:30am 12.5 9.9 -5.0 29 7.2 CALM 0 0 0 0 1027.0 1019.1 0.0
15/05:00am 12.3 9.5 -3.5 33 6.7 N 2 6 1 3 1026.9 1019.0 0.0
15/04:30am 11.9 9.2 -5.5 29 7.0 CALM 0 0 0 0 1026.5 1018.6 0.0
15/04:00am 12.0 9.5 -4.2 32 6.7 CALM 0 0 0 0 1026.4 1018.5 0.0
15/03:30am 12.5 9.4 -2.9 34 6.6 SSE 4 6 2 3 1026.3 1018.4 0.0
15/03:00am 11.8 9.6 -1.7 39 5.9 CALM 0 0 0 0 1026.2 1018.2 0.0
15/02:30am 11.7 8.6 1.6 50 4.8 SSE 7 9 4 5 1026.2 1018.2 0.0
15/02:00am 11.6 8.7 1.5 50 4.7 SE 6 7 3 4 1026.3 1018.4 0.0
15/01:30am 11.3 8.3 1.0 49 4.8 ESE 6 7 3 4 1026.5 1018.6 0.0
15/01:00am 11.0 8.2 2.1 54 4.2 E 6 7 3 4 1026.5 1018.6 0.0
15/12:30am 11.0 8.1 2.6 56 4.0 ESE 7 9 4 5 1026.4 1018.5 0.0
15/12:00am 10.9 8.1 3.2 59 3.7 ESE 7 9 4 5 1026.4 1018.5 0.0
 
Date/Time
EDT
Temp
°C
App
Temp
°C
Dew
Point
°C
Rel
Hum
%
Delta-T
°C
Wind Press
QNH
hPa
Press
MSL
hPa
Rain since
9am
mm
Dir  Spd
km/h
Gust
km/h
Spd
kts
Gust
kts
14/11:30pm 11.0 8.4 3.1 58 3.8 SE 6 6 3 3 1026.4 1018.5 0.0
14/11:00pm 10.1 7.6 3.8 65 3.1 ESE 6 7 3 4 1026.3 1018.4 0.0
14/10:30pm 9.2 6.7 4.0 70 2.5 SSE 6 7 3 4 1026.3 1018.4 0.0
14/10:00pm 9.5 6.9 4.1 69 2.6 SSE 7 9 4 5 1026.2 1018.2 0.0
14/09:30pm 9.7 6.7 4.1 68 2.7 SSE 9 13 5 7 1025.9 1018.0 0.0
14/09:00pm 9.9 6.5 4.1 67 2.8 SE 11 15 6 8 1025.7 1017.8 0.0
14/08:30pm 10.8 7.8 4.3 64 3.2 SE 9 15 5 8 1025.5 1017.5 0.0
14/08:00pm 12.2 9.3 4.4 59 3.9 SE 9 17 5 9 1025.0 1017.0 0.0
14/07:30pm 13.9 10.8 3.4 49 5.2 SSW 9 15 5 8 1024.6 1016.6 0.0
14/07:00pm 14.4 10.1 3.2 47 5.6 SSW 15 20 8 11 1024.3 1016.3 0.0
14/06:30pm 15.3 11.4 3.5 45 5.9 SSW 13 20 7 11 1023.9 1015.9 0.0
14/06:00pm 15.0 12.6 5.2 52 5.1 WSW 7 24 4 13 1023.9 1015.9 0.0
14/05:30pm 15.0 12.6 4.4 49 5.4 W 6 13 3 7 1023.8 1015.8 0.0
14/05:00pm 14.4 11.9 3.5 48 5.4 W 6 13 3 7 1023.7 1015.7 0.0
14/04:30pm 13.6 10.1 3.4 50 5.1 WSW 11 20 6 11 1023.6 1015.5 0.0
14/04:00pm 13.6 9.9 4.2 53 4.7 W 13 17 7 9 1023.4 1015.4 0.0
14/03:30pm 12.4 8.9 3.6 55 4.4 N 11 19 6 10 1023.3 1015.3 0.0
14/03:00pm 12.7 9.4 4.4 57 4.2 N 11 20 6 11 1023.4 1015.4 0.0
14/02:30pm 12.9 9.9 4.3 56 4.3 NNW 9 17 5 9 1023.1 1015.0 0.0
14/02:00pm 12.6 8.7 3.3 53 4.6 WNW 13 22 7 12 1023.0 1014.9 0.0
14/01:30pm 11.7 7.7 3.0 55 4.2 N 13 26 7 14 1022.8 1014.8 0.0
14/01:00pm 12.2 8.6 5.1 62 3.6 N 13 20 7 11 1022.6 1014.6 0.0
14/12:30pm 10.6 7.3 2.7 58 3.8 NNW 9 19 5 10 1022.5 1014.4 0.0
14/12:00pm 11.2 7.3 3.3 58 3.8 NNW 13 22 7 12 1022.4 1014.3 0.0
14/11:30am 9.6 5.3 1.3 56 3.8 N 13 24 7 13 1022.0 1013.9 0.0
14/11:00am 9.9 5.9 0.8 53 4.1 N 11 19 6 10 1021.9 1013.8 0.0
14/10:30am 8.9 5.1 -0.4 52 4.1 NNW 9 15 5 8 1021.5 1013.5 0.0
14/10:00am 8.9 3.7 -2.7 44 4.8 NW 15 24 8 13 1021.3 1013.2 0.0
14/09:30am 7.7 3.1 -1.3 53 3.8 N 13 19 7 10 1020.9 1012.8 0.0
14/09:00am 6.9 2.9 -2.3 52 3.8 NNW 9 13 5 7 1020.5 1012.3 0.0
14/08:30am 6.0 1.4 -4.4 47 4.0 NW 11 20 6 11 1020.2 1012.1 0.0
14/08:00am 4.7 -0.8 -5.6 47 3.8 NW 15 22 8 12 1019.6 1011.5 0.0
14/07:30am 3.9 -2.3 -4.8 53 3.3 WNW 19 22 10 12 1019.2 1011.0 0.0
14/07:00am 3.8 -2.6 -4.9 53 3.3 WNW 20 24 11 13 1018.8 1010.6 0.0
14/06:30am 3.8 -2.9 -4.4 55 3.1 WNW 22 26 12 14 1018.3 1010.1 0.0
14/06:00am 3.6 -2.7 -3.6 59 2.8 WNW 20 26 11 14 1018.0 1009.8 0.0
14/05:30am 3.6 -3.3 -3.0 62 2.6 NW 24 30 13 16 1017.7 1009.5 0.0
14/05:00am 3.4 -3.5 -2.7 64 2.4 NW 24 28 13 15 1017.5 1009.3 0.0
14/04:30am 3.3 -3.1 -2.0 68 2.1 NW 22 26 12 14 1017.5 1009.3 0.0
14/04:00am 3.3 -3.5 -1.6 70 2.0 NW 24 28 13 15 1017.4 1009.2 0.0
14/03:30am 3.0 -3.4 -1.7 71 1.9 NW 22 26 12 14 1017.4 1009.2 0.0
14/03:00am 3.2 -3.2 -1.5 71 1.9 NW 22 28 12 15 1017.3 1009.0 0.0
14/02:30am 3.1 -3.6 -1.4 72 1.8 NW 24 30 13 16 1017.0 1008.8 0.0
14/02:00am 3.0 -3.0 -1.5 72 1.8 NW 20 24 11 13 1017.1 1008.9 0.0
14/01:30am 2.8 -2.6 -1.5 73 1.7 NW 17 20 9 11 1017.4 1009.2 0.0
14/01:00am 2.5 -1.8 -1.3 76 1.5 NNW 11 13 6 7 1017.4 1009.2 0.0
14/12:30am 2.7 -1.2 -1.6 73 1.7 NW 9 11 5 6 1017.4 1009.2 0.0
14/12:00am 2.8 -0.7 -1.7 72 1.8 WNW 7 9 4 5 1017.4 1009.2 0.0
 
Date/Time
EDT
Temp
°C
App
Temp
°C
Dew
Point
°C
Rel
Hum
%
Delta-T
°C
Wind Press
QNH
hPa
Press
MSL
hPa
Rain since
9am
mm
Dir  Spd
km/h
Gust
km/h
Spd
kts
Gust
kts
13/11:30pm 2.7 -0.6 -1.5 74 1.7 WNW 6 7 3 4 1017.4 1009.2 0.0
13/11:00pm 2.4 -0.3 0.0 84 1.0 SSE 4 6 2 3 1017.6 1009.4 0.0
13/10:30pm 2.5 -0.6 -0.1 83 1.1 SSE 6 7 3 4 1017.6 1009.4 0.0
13/10:00pm 2.9 -0.9 -1.1 75 1.6 SSE 9 13 5 7 1017.4 1009.2 0.0
13/09:30pm 3.4 0.0 -1.9 68 2.1 SSW 6 9 3 5 1017.0 1008.8 0.0
13/09:00pm 3.9 0.4 -1.7 67 2.3 SSW 7 13 4 7 1016.4 1008.2 0.0
13/08:30pm 3.7 -0.6 -1.3 70 2.0 SW 11 15 6 8 1016.2 1007.9 0.0

Other Formats:

Comma delimited format used in spreadsheet applications
http://www.bom.gov.au/fwo/IDV60801/IDV60801.94903.axf

JavaScript Object Notation format (JSON) in row-major order
http://www.bom.gov.au/fwo/IDV60801/IDV60801.94903.json